Nearby METAR Reports

 

KMTN - Baltimore/Martin, Maryland, USA
Distance from station: SSE 8mi, 13km
Updated: Thu, 30-Oct-2014 7:55am EDT
Mostly cloudy
Mostly cloudy
 Wind from W
Wind: W 8 mph , 13 km/h
Temperature: 46°F , 8°C
Wind Chill: 42°F , 6°C
Dew Point: 46°F , 8°C
Humidity: 100%
Barometer: 30.05 inHg , 1017.6 hPa
Clouds: Mostly cloudy
Visibility: 10 miles , 16 km
Cloud details: Mostly cloudy 7500 ft
2014/10/30 11:55 KMTN 301155Z 27007KT 10SM BKN075 08/08 A3005
KDMH - Baltimore/Dwntwn, Maryland, USA
Distance from station: SW 12mi, 19km
Updated: Thu, 30-Oct-2014 7:54am EDT

 
Temperature: 50°F , 10°C
Dew Point: 39°F , 4°C
Humidity: 67%
Barometer: 30.03 inHg , 1016.9 hPa
2014/10/30 11:54 KDMH 301154Z AUTO 10/04 A3003 RMK AO1 SLP169 70005 T01000039 10111 20100 52012
 
KBWI - Balto/Wash Intl, Maryland, USA
Distance from station: SSW 20mi, 33km
Updated: Thu, 30-Oct-2014 7:54am EDT
Mostly cloudy
Mostly cloudy
 Wind from W
Wind: W 6 mph , 9 km/h
Temperature: 45°F , 7°C
Wind Chill: 42°F , 6°C
Dew Point: 41°F , 5°C
Humidity: 87%
Barometer: 30.03 inHg , 1016.9 hPa
Clouds: Mostly cloudy
Visibility: 10 miles , 16 km
Cloud details: Partly cloudy 7000 ft
Mostly cloudy 25000 ft
2014/10/30 11:54 KBWI 301154Z 28005KT 10SM SCT070 BKN250 07/05 A3003 RMK AO2 SLP168 60000 70005 T00670050 10072 20056 52012 $
KDMW - Carroll Cnty, Maryland, USA
Distance from station: WNW 30mi, 48km
Updated: Thu, 30-Oct-2014 7:50am EDT
Clear
Clear
 Wind from calm
Wind: Calm
Temperature: 45°F , 7°C
Dew Point: 39°F , 4°C
Humidity: 81%
Barometer: 30.04 inHg , 1017.3 hPa
Clouds: Clear
Visibility: 10 miles , 16 km
2014/10/30 11:50 KDMW 301150Z AUTO 00000KT 10SM CLR 07/04 A3004 RMK AO2
 
KNAK - Annapolis/Naval, Maryland, USA
Distance from station: S 30mi, 48km
Updated: Thu, 30-Oct-2014 7:54am EDT
Mostly cloudy
Mostly cloudy
 Wind from W
Wind: W 5 mph , 7 km/h
Temperature: 48°F , 9°C
Wind Chill: 46°F , 8°C
Dew Point: 43°F , 6°C
Humidity: 82%
Barometer: 30.03 inHg , 1016.9 hPa
Clouds: Mostly cloudy
Visibility: 10 miles , 16 km
Cloud details: Mostly cloudy 7500 ft
2014/10/30 11:54 KNAK 301154Z AUTO 28004KT 10SM BKN075 09/06 A3003 RMK AO2 SLP171 T00940056 10106 20078 53013
KW29 - Stevensville, Maryland, USA
Distance from station: SSE 31mi, 50km
Updated: Thu, 30-Oct-2014 7:53am EDT

 Wind from NW
Wind: NW 3 mph , 6 km/h
Temperature: 50°F , 10°C
Dew Point: 45°F , 7°C
Humidity: 82%
Barometer: 30.03 inHg , 1016.9 hPa
Visibility: 10 miles , 16 km
2014/10/30 11:53 KW29 301153Z AUTO 31003KT 10SM 10/07 A3003 RMK AO1
 
KCGS - College Park, Maryland, USA
Distance from station: SW 38mi, 61km
Updated: Thu, 30-Oct-2014 7:50am EDT
Partly cloudy
Partly cloudy
 Wind from calm
Wind: Calm
Temperature: 43°F , 6°C
Dew Point: 43°F , 6°C
Humidity: 100%
Barometer: 30.04 inHg , 1017.3 hPa
Clouds: Partly cloudy
Visibility: 10 miles , 16 km
Cloud details: Partly cloudy 7500 ft
2014/10/30 11:50 KCGS 301150Z AUTO 00000KT 10SM SCT075 06/06 A3004 RMK AO1
KGAI - Gaithersburg, Maryland, USA
Distance from station: WSW 40mi, 65km
Updated: Thu, 30-Oct-2014 7:55am EDT
Overcast
Overcast
 Wind from calm
Wind: Calm
Temperature: 43°F , 6°C
Dew Point: 39°F , 4°C
Humidity: 87%
Barometer: 30.08 inHg , 1018.6 hPa
Clouds: Overcast
Visibility: 10 miles , 16 km
Cloud details: Overcast 7000 ft
2014/10/30 11:55 KGAI 301155Z 00000KT 10SM OVC070 06/04 A3008 RMK AO1 70011 10060 20030 52010
 
KTHV - York, Pennsylvania, USA
Distance from station: NNW 40mi, 65km
Updated: Thu, 30-Oct-2014 7:53am EDT
Clear
Clear
 Wind from WNW
Wind: WNW 3 mph , 6 km/h
Temperature: 39°F , 4°C
Dew Point: 37°F , 3°C
Humidity: 93%
Barometer: 30.04 inHg , 1017.3 hPa
Clouds: Clear
Visibility: 10 miles , 16 km
2014/10/30 11:53 KTHV 301153Z AUTO 29003KT 10SM CLR 04/03 A3004 RMK AO2 SLP175 70010 T00440033 10072 20039 51013
KFDK - Frederick, Maryland, USA
Distance from station: W 47mi, 75km
Updated: Thu, 30-Oct-2014 7:50am EDT
Clear
Clear
 Wind from calm
Wind: Calm
Temperature: 46°F , 8°C
Dew Point: 41°F , 5°C
Humidity: 82%
Barometer: 30.08 inHg , 1018.6 hPa
Clouds: Clear
Visibility: 10 miles , 16 km
2014/10/30 11:50 KFDK 301150Z 00000KT 10SM SKC 08/05 A3008
 
KESN - Easton/Newnam, Maryland, USA
Distance from station: SSE 48mi, 78km
Updated: Thu, 30-Oct-2014 7:50am EDT
Patches of fog, Few clouds
Patches of fog, Few clouds
 Wind from calm
Wind: Calm
Temperature: 45°F , 7°C
Dew Point: 45°F , 7°C
Humidity: 100%
Barometer: 30.05 inHg , 1017.6 hPa
Summary: Patches of Fog
Clouds: Few Clouds
Visibility: 7 miles , 11 km
Cloud details: Few Clouds 10000 ft
2014/10/30 11:50 KESN 301150Z 00000KT 7SM BCFG FEW100 07/07 A3005
KDCA - Washington/Natl, Washington D.c., USA
Distance from station: SW 49mi, 79km
Updated: Thu, 30-Oct-2014 7:52am EDT
Partly cloudy
Partly cloudy
 Wind from NNW
Wind: NNW 12 mph , 19 km/h
Temperature: 52°F , 11°C
Dew Point: 37°F , 3°C
Humidity: 58%
Barometer: 30.05 inHg , 1017.6 hPa
Clouds: Partly cloudy
Visibility: 10 miles , 16 km
Cloud details: Few Clouds 8000 ft
Partly cloudy 12000 ft
2014/10/30 11:52 KDCA 301152Z 33010KT 10SM FEW080 SCT120 11/03 A3005 RMK AO2 SLP175 70003 T01060033 10111 20094 53012
 
KLNS - Lancaster, Pennsylvania, USA
Distance from station: N 49mi, 79km
Updated: Thu, 30-Oct-2014 7:53am EDT
Mist, Clear
Mist, Clear
 Wind from WNW
Wind: WNW 7 mph , 11 km/h
Temperature: 39°F , 4°C
Wind Chill: 34°F , 1°C
Dew Point: 37°F , 3°C
Humidity: 93%
Barometer: 30.03 inHg , 1016.9 hPa
Summary: Mist
Clouds: Clear
Visibility: 4 miles , 6 km
2014/10/30 11:53 KLNS 301153Z 29006KT 4SM BR CLR 04/03 A3003 RMK AO2 SLP169 70005 T00390033 10072 20039 51015
KILG - Wilmington, Delaware, USA
Distance from station: ENE 50mi, 81km
Updated: Thu, 30-Oct-2014 7:51am EDT
Overcast
Overcast
 Wind from WNW
Wind: WNW 3 mph , 6 km/h
Temperature: 45°F , 7°C
Dew Point: 45°F , 7°C
Humidity: 100%
Barometer: 30.02 inHg , 1016.6 hPa
Clouds: Overcast
Visibility: 9 miles , 14 km
Cloud details: Overcast 7000 ft
2014/10/30 11:51 KILG 301151Z AUTO 29003KT 9SM OVC070 07/07 A3002 RMK AO2 SLP165 70006 T00720067 10078 20050 53010